Time;durP1;ratioP1;P1;durP2;ratioP2;P2;SDS_P1;SDS_P2;PMS_P1;PMS_P2;Temp;Humidity;BMP_temperature;BMP_pressure;BME280_temperature;BME280_humidity;BME280_pressure;Samples;Min_cycle;Max_cycle;Signal;HPM_P1;HPM_P2
2023/11/28 00:01:03;;;;;;;4.27;3.87;;;;;;;;;;4946813;28;20241;-80
2023/11/28 00:03:28;;;;;;;5.27;4.27;;;;;;;;;;4936556;28;20238;-83
2023/11/28 00:05:56;;;;;;;6.20;4.73;;;;;;;;;;4938594;29;20219;-82
2023/11/28 00:08:22;;;;;;;5.53;4.70;;;;;;;;;;4935174;28;20234;-80
2023/11/28 00:10:48;;;;;;;5.00;4.50;;;;;;;;;;4946301;28;20268;-82
2023/11/28 00:13:14;;;;;;;5.67;4.67;;;;;;;;;;4945385;28;20207;-83
2023/11/28 00:15:42;;;;;;;5.67;4.67;;;;;;;;;;4951123;28;20312;-82
2023/11/28 00:18:07;;;;;;;5.90;4.30;;;;;;;;;;4931698;28;20309;-79
2023/11/28 00:20:35;;;;;;;6.17;4.47;;;;;;;;;;4966731;28;20241;-83
2023/11/28 00:23:01;;;;;;;5.93;5.07;;;;;;;;;;4935383;28;20993;-82
2023/11/28 00:25:27;;;;;;;7.63;4.90;;;;;;;;;;4948806;28;20230;-84
2023/11/28 00:27:56;;;;;;;4.83;4.43;;;;;;;;;;4949239;28;20708;-83
2023/11/28 00:30:27;;;;;;;5.33;4.77;;;;;;;;;;4921300;28;20218;-83
2023/11/28 00:32:54;;;;;;;7.53;5.30;;;;;;;;;;4963814;28;20221;-82
2023/11/28 00:35:20;;;;;;;6.73;4.87;;;;;;;;;;4958366;28;20730;-83
2023/11/28 00:37:45;;;;;;;7.13;4.90;;;;;;;;;;4947901;28;20222;-85
2023/11/28 00:40:14;;;;;;;5.97;5.10;;;;;;;;;;4949466;28;20225;-83
2023/11/28 00:42:45;;;;;;;4.63;4.13;;;;;;;;;;4936991;28;20715;-81
2023/11/28 00:45:12;;;;;;;6.77;4.60;;;;;;;;;;4947531;28;20998;-83
2023/11/28 00:47:39;;;;;;;5.30;4.63;;;;;;;;;;4936316;28;20475;-85
2023/11/28 00:50:05;;;;;;;7.83;4.90;;;;;;;;;;4952151;28;20218;-84
2023/11/28 00:52:31;;;;;;;5.27;4.77;;;;;;;;;;4965341;28;20214;-82
2023/11/28 00:54:56;;;;;;;6.07;4.97;;;;;;;;;;4919699;28;20764;-82
2023/11/28 00:57:23;;;;;;;7.27;5.10;;;;;;;;;;4955083;28;20229;-82
2023/11/28 00:59:51;;;;;;;7.50;4.90;;;;;;;;;;4946435;28;20969;-80
2023/11/28 01:02:17;;;;;;;7.03;5.20;;;;;;;;;;4947158;28;20215;-82
2023/11/28 01:04:43;;;;;;;5.20;4.33;;;;;;;;;;4955465;28;20259;-80
2023/11/28 01:07:08;;;;;;;6.43;4.50;;;;;;;;;;4947433;28;20217;-80
2023/11/28 01:09:36;;;;;;;6.33;4.63;;;;;;;;;;4976884;28;20227;-81
2023/11/28 01:12:02;;;;;;;5.57;4.17;;;;;;;;;;4979614;28;20735;-79
2023/11/28 01:14:28;;;;;;;6.83;4.87;;;;;;;;;;4976808;28;20251;-81
2023/11/28 01:16:53;;;;;;;6.13;4.47;;;;;;;;;;4956872;28;20218;-86
2023/11/28 01:19:19;;;;;;;8.30;4.23;;;;;;;;;;4936863;28;20222;-83
2023/11/28 01:21:44;;;;;;;5.97;4.60;;;;;;;;;;4934650;28;20239;-83
2023/11/28 01:24:10;;;;;;;5.83;3.70;;;;;;;;;;4941215;28;20230;-83
2023/11/28 01:26:36;;;;;;;6.13;4.37;;;;;;;;;;4966170;28;20229;-83
2023/11/28 01:29:03;;;;;;;7.07;4.47;;;;;;;;;;4940123;28;20221;-84
2023/11/28 01:31:31;;;;;;;6.93;4.37;;;;;;;;;;4954092;28;20222;-82
2023/11/28 01:34:01;;;;;;;4.63;3.87;;;;;;;;;;4959584;28;20222;-83
2023/11/28 01:36:29;;;;;;;6.77;3.90;;;;;;;;;;4933099;28;20646;-84
2023/11/28 01:38:57;;;;;;;5.17;3.87;;;;;;;;;;4951000;28;20215;-81
2023/11/28 01:41:22;;;;;;;4.93;4.23;;;;;;;;;;4944195;28;20222;-82
2023/11/28 01:43:48;;;;;;;5.43;4.20;;;;;;;;;;4960747;28;20230;-83
2023/11/28 01:46:17;;;;;;;3.90;3.33;;;;;;;;;;4947948;28;20215;-85
2023/11/28 01:48:42;;;;;;;5.23;3.83;;;;;;;;;;4956265;28;20230;-82
2023/11/28 01:51:08;;;;;;;5.23;3.47;;;;;;;;;;4962896;28;20229;-83
2023/11/28 01:53:36;;;;;;;4.67;3.60;;;;;;;;;;4952543;28;20218;-83
2023/11/28 01:56:02;;;;;;;3.77;3.47;;;;;;;;;;4931072;28;20225;-83
2023/11/28 01:58:27;;;;;;;5.03;3.80;;;;;;;;;;4952589;28;20222;-84
2023/11/28 02:00:58;;;;;;;5.20;2.97;;;;;;;;;;4949642;28;20248;-84
2023/11/28 02:03:26;;;;;;;5.07;3.43;;;;;;;;;;4956165;28;20226;-84
2023/11/28 02:05:54;;;;;;;3.73;3.17;;;;;;;;;;4934281;28;20218;-82
2023/11/28 02:08:19;;;;;;;4.50;3.37;;;;;;;;;;4953866;28;20284;-85
2023/11/28 02:10:45;;;;;;;4.67;3.20;;;;;;;;;;4962120;28;20218;-83
2023/11/28 02:13:13;;;;;;;7.37;3.20;;;;;;;;;;4940034;28;20225;-80
2023/11/28 02:15:45;;;;;;;5.33;3.47;;;;;;;;;;4967041;28;20234;-83
2023/11/28 02:18:11;;;;;;;4.40;3.40;;;;;;;;;;4955027;28;20226;-83
2023/11/28 02:20:37;;;;;;;3.57;3.13;;;;;;;;;;4944729;29;20226;-83
2023/11/28 02:23:05;;;;;;;6.33;3.23;;;;;;;;;;4967515;28;20562;-84
2023/11/28 02:25:49;;;;;;;4.23;2.70;;;;;;;;;;4945350;28;20234;-83
2023/11/28 02:28:18;;;;;;;5.60;3.43;;;;;;;;;;4940049;28;20222;-81
2023/11/28 02:30:47;;;;;;;4.90;3.27;;;;;;;;;;4947852;28;20242;-83
2023/11/28 02:33:12;;;;;;;6.70;3.47;;;;;;;;;;4948180;28;20215;-83
2023/11/28 02:35:40;;;;;;;5.30;3.47;;;;;;;;;;4944947;28;20230;-84
2023/11/28 02:38:06;;;;;;;4.47;3.33;;;;;;;;;;4936555;28;20226;-83
2023/11/28 02:40:32;;;;;;;3.53;2.90;;;;;;;;;;4950194;28;20253;-82
2023/11/28 02:42:57;;;;;;;3.97;3.43;;;;;;;;;;4945195;28;20230;-85
2023/11/28 02:45:25;;;;;;;3.60;3.03;;;;;;;;;;4952972;28;20235;-85
2023/11/28 02:47:50;;;;;;;5.40;3.97;;;;;;;;;;4952015;28;20227;-84
2023/11/28 02:50:18;;;;;;;3.50;3.20;;;;;;;;;;4947945;28;20298;-82
2023/11/28 02:52:43;;;;;;;4.17;3.23;;;;;;;;;;4950969;28;20222;-84
2023/11/28 02:55:11;;;;;;;4.57;3.30;;;;;;;;;;4937215;28;20238;-83
2023/11/28 02:57:37;;;;;;;5.27;3.67;;;;;;;;;;4941003;28;20231;-83
2023/11/28 03:00:05;;;;;;;4.03;3.10;;;;;;;;;;4955863;28;20224;-83
2023/11/28 03:02:31;;;;;;;4.00;3.30;;;;;;;;;;4959777;28;20226;-81
2023/11/28 03:04:59;;;;;;;4.17;3.30;;;;;;;;;;4962289;28;20237;-85
2023/11/28 03:07:24;;;;;;;3.50;3.20;;;;;;;;;;4936190;28;20219;-81
2023/11/28 03:09:51;;;;;;;3.77;3.10;;;;;;;;;;4954759;28;20244;-82
2023/11/28 03:12:17;;;;;;;3.87;2.97;;;;;;;;;;4953641;28;20214;-81
2023/11/28 03:14:50;;;;;;;4.23;3.43;;;;;;;;;;4939466;28;21048;-79
2023/11/28 03:17:15;;;;;;;3.50;3.20;;;;;;;;;;4942305;28;20249;-82
2023/11/28 03:19:43;;;;;;;3.20;2.90;;;;;;;;;;4950134;28;20215;-79
2023/11/28 03:22:13;;;;;;;3.73;3.10;;;;;;;;;;4920469;28;20310;-78
2023/11/28 03:24:40;;;;;;;5.43;3.20;;;;;;;;;;4957527;28;20668;-80
2023/11/28 03:27:07;;;;;;;3.50;2.90;;;;;;;;;;4949714;28;20255;-83
2023/11/28 03:29:32;;;;;;;3.63;2.60;;;;;;;;;;4969402;28;20225;-82
2023/11/28 03:31:59;;;;;;;3.10;2.90;;;;;;;;;;4960965;28;20232;-82
2023/11/28 03:34:25;;;;;;;3.37;2.47;;;;;;;;;;4955142;28;20226;-84
2023/11/28 03:36:51;;;;;;;3.20;2.90;;;;;;;;;;4949147;28;20227;-78
2023/11/28 03:39:17;;;;;;;4.53;2.73;;;;;;;;;;4951294;28;20265;-81
2023/11/28 03:41:42;;;;;;;2.77;2.50;;;;;;;;;;4950830;28;20595;-81
2023/11/28 03:44:10;;;;;;;2.47;2.27;;;;;;;;;;4940994;28;20230;-80
2023/11/28 03:46:36;;;;;;;3.50;2.50;;;;;;;;;;4957006;28;20222;-80
2023/11/28 03:49:06;;;;;;;2.40;2.20;;;;;;;;;;4938515;28;20218;-79
2023/11/28 03:51:36;;;;;;;3.77;2.23;;;;;;;;;;4938781;28;20218;-82
2023/11/28 03:54:07;;;;;;;2.53;2.27;;;;;;;;;;4956376;28;20233;-82
2023/11/28 03:56:37;;;;;;;2.53;2.23;;;;;;;;;;4954052;28;20249;-79
2023/11/28 04:02:53;;;;;;;3.03;2.10;;;;;;;;;;4973496;28;20312;-81
2023/11/28 04:05:21;;;;;;;2.33;2.13;;;;;;;;;;4973890;28;20234;-78
2023/11/28 04:07:51;;;;;;;2.73;2.27;;;;;;;;;;4942895;28;20223;-79
2023/11/28 04:10:17;;;;;;;3.13;2.33;;;;;;;;;;4949408;28;20226;-80
2023/11/28 04:12:42;;;;;;;2.53;2.20;;;;;;;;;;4941455;28;20226;-82
2023/11/28 04:15:09;;;;;;;2.43;2.23;;;;;;;;;;4951646;28;20245;-82
2023/11/28 04:17:38;;;;;;;2.23;2.03;;;;;;;;;;4962803;28;20712;-78
2023/11/28 04:20:09;;;;;;;3.47;2.20;;;;;;;;;;4952927;28;20238;-81
2023/11/28 04:22:37;;;;;;;3.67;2.10;;;;;;;;;;4949854;28;20243;-82
2023/11/28 04:25:05;;;;;;;2.40;1.93;;;;;;;;;;4957621;28;20608;-79
2023/11/28 04:27:32;;;;;;;2.27;1.90;;;;;;;;;;4941722;28;20698;-80
2023/11/28 04:29:59;;;;;;;2.33;1.83;;;;;;;;;;4948370;28;20242;-82
2023/11/28 04:32:29;;;;;;;1.80;1.70;;;;;;;;;;4944100;28;20350;-81
2023/11/28 04:34:54;;;;;;;1.77;1.60;;;;;;;;;;4948220;28;20227;-83
2023/11/28 04:37:20;;;;;;;3.10;1.50;;;;;;;;;;4936725;28;20219;-82
2023/11/28 04:39:50;;;;;;;1.97;1.77;;;;;;;;;;4953132;28;20226;-79
2023/11/28 04:42:16;;;;;;;2.10;1.90;;;;;;;;;;4952617;28;20283;-82
2023/11/28 04:44:46;;;;;;;1.93;1.67;;;;;;;;;;4951632;28;20312;-80
2023/11/28 04:47:11;;;;;;;3.70;1.73;;;;;;;;;;4954814;28;20304;-82
2023/11/28 04:49:40;;;;;;;2.10;1.50;;;;;;;;;;4932997;28;20250;-82
2023/11/28 04:52:11;;;;;;;2.47;1.60;;;;;;;;;;4932943;28;20717;-83
2023/11/28 04:54:37;;;;;;;1.77;1.40;;;;;;;;;;4950549;28;20234;-79
2023/11/28 04:57:04;;;;;;;1.13;1.13;;;;;;;;;;4946106;28;20305;-79
2023/11/28 04:59:35;;;;;;;1.50;1.40;;;;;;;;;;4964321;28;20595;-81
2023/11/28 05:02:01;;;;;;;1.50;1.40;;;;;;;;;;4961079;28;20314;-77
2023/11/28 05:04:26;;;;;;;1.73;1.63;;;;;;;;;;4945669;28;20230;-79
2023/11/28 05:06:54;;;;;;;2.87;1.57;;;;;;;;;;4960009;28;20230;-78
2023/11/28 05:09:20;;;;;;;1.80;1.43;;;;;;;;;;4947542;28;20211;-80
2023/11/28 05:11:48;;;;;;;1.30;1.20;;;;;;;;;;4954372;28;20222;-79
2023/11/28 05:14:14;;;;;;;2.07;1.27;;;;;;;;;;4962551;28;20222;-79
2023/11/28 05:16:40;;;;;;;1.50;1.20;;;;;;;;;;4947828;28;20258;-80
2023/11/28 05:19:08;;;;;;;1.53;1.43;;;;;;;;;;4968344;28;20225;-80
2023/11/28 05:21:36;;;;;;;1.33;1.23;;;;;;;;;;4949438;28;20238;-80
2023/11/28 05:24:02;;;;;;;1.73;1.63;;;;;;;;;;4931369;28;20230;-80
2023/11/28 05:26:27;;;;;;;1.40;1.30;;;;;;;;;;4930193;28;20222;-79
2023/11/28 05:28:55;;;;;;;1.60;1.40;;;;;;;;;;4934085;28;20226;-80
2023/11/28 05:31:24;;;;;;;1.50;1.40;;;;;;;;;;4953480;28;20273;-80
2023/11/28 05:33:50;;;;;;;1.97;1.50;;;;;;;;;;4952963;28;20226;-79
2023/11/28 05:36:18;;;;;;;1.20;1.20;;;;;;;;;;4968310;28;20248;-80
2023/11/28 05:38:46;;;;;;;1.43;1.33;;;;;;;;;;4945040;28;20233;-81
2023/11/28 05:41:12;;;;;;;2.93;1.67;;;;;;;;;;4968826;28;20651;-82
2023/11/28 05:43:37;;;;;;;1.30;1.20;;;;;;;;;;4929191;28;20300;-79
2023/11/28 05:46:04;;;;;;;1.60;1.50;;;;;;;;;;4951459;28;20705;-79
2023/11/28 05:48:34;;;;;;;1.70;1.40;;;;;;;;;;4924557;28;20218;-79
2023/11/28 05:51:00;;;;;;;1.70;1.43;;;;;;;;;;4948801;28;20225;-79
2023/11/28 05:53:28;;;;;;;1.60;1.50;;;;;;;;;;4937585;28;20215;-78
2023/11/28 05:55:54;;;;;;;1.87;1.50;;;;;;;;;;4969410;28;20728;-78
2023/11/28 05:58:20;;;;;;;1.60;1.50;;;;;;;;;;4941421;28;20225;-79
2023/11/28 06:00:45;;;;;;;1.53;1.43;;;;;;;;;;4955652;28;20289;-79
2023/11/28 06:03:13;;;;;;;1.57;1.47;;;;;;;;;;4960786;28;20671;-81
2023/11/28 06:05:41;;;;;;;1.83;1.37;;;;;;;;;;4970229;28;20234;-79
2023/11/28 06:08:09;;;;;;;1.87;1.40;;;;;;;;;;4952188;28;20218;-80
2023/11/28 06:10:34;;;;;;;1.20;1.20;;;;;;;;;;4940016;28;20222;-80
2023/11/28 06:13:00;;;;;;;1.40;1.30;;;;;;;;;;4955129;28;20214;-78
2023/11/28 06:15:26;;;;;;;1.30;1.20;;;;;;;;;;4957228;28;20227;-79
2023/11/28 06:17:52;;;;;;;1.60;1.50;;;;;;;;;;4963378;28;20219;-80
2023/11/28 06:20:17;;;;;;;1.47;1.37;;;;;;;;;;4937834;28;20222;-78
2023/11/28 06:22:45;;;;;;;1.30;1.23;;;;;;;;;;4981467;28;20207;-78
2023/11/28 06:25:10;;;;;;;1.70;1.60;;;;;;;;;;4976589;28;20218;-77
2023/11/28 06:27:36;;;;;;;1.40;1.30;;;;;;;;;;4975626;28;20257;-78
2023/11/28 06:30:04;;;;;;;1.60;1.50;;;;;;;;;;4963448;28;20280;-77
2023/11/28 06:32:29;;;;;;;1.87;1.47;;;;;;;;;;4956260;28;20253;-77
2023/11/28 06:34:59;;;;;;;1.70;1.60;;;;;;;;;;4979381;28;20234;-77
2023/11/28 06:37:25;;;;;;;1.93;1.50;;;;;;;;;;4970257;28;20273;-78
2023/11/28 06:39:51;;;;;;;1.93;1.70;;;;;;;;;;4990351;28;20318;-80
2023/11/28 06:42:18;;;;;;;1.67;1.57;;;;;;;;;;4985425;28;20250;-81
2023/11/28 06:44:43;;;;;;;2.07;1.87;;;;;;;;;;4977808;28;20242;-80
2023/11/28 06:47:11;;;;;;;2.37;2.17;;;;;;;;;;4936631;28;20265;-80
2023/11/28 06:49:39;;;;;;;2.30;2.10;;;;;;;;;;4934152;28;20233;-79
2023/11/28 06:52:09;;;;;;;2.77;2.57;;;;;;;;;;4946699;28;20226;-79
2023/11/28 06:54:35;;;;;;;2.40;2.30;;;;;;;;;;4931632;28;20241;-80
2023/11/28 06:57:00;;;;;;;3.80;2.90;;;;;;;;;;4950422;28;21119;-79
2023/11/28 06:59:28;;;;;;;2.73;2.57;;;;;;;;;;4973534;28;20310;-80
2023/11/28 07:01:56;;;;;;;3.20;2.90;;;;;;;;;;4962863;28;20300;-79
2023/11/28 07:04:22;;;;;;;3.03;2.77;;;;;;;;;;4957744;28;20277;-78
2023/11/28 07:06:50;;;;;;;3.20;3.00;;;;;;;;;;4944878;28;20231;-79
2023/11/28 07:09:17;;;;;;;3.30;3.00;;;;;;;;;;4945380;28;20223;-79
2023/11/28 07:11:43;;;;;;;3.20;3.00;;;;;;;;;;4951809;28;20237;-79
2023/11/28 07:14:09;;;;;;;3.20;3.00;;;;;;;;;;4956007;28;20231;-79
2023/11/28 07:16:34;;;;;;;3.53;3.07;;;;;;;;;;4957320;28;20221;-79
2023/11/28 07:19:00;;;;;;;3.40;3.10;;;;;;;;;;4943077;28;20218;-79
2023/11/28 07:21:25;;;;;;;3.50;3.30;;;;;;;;;;4961075;28;20253;-81
2023/11/28 07:23:51;;;;;;;3.83;3.03;;;;;;;;;;4961884;28;20747;-78
2023/11/28 07:26:19;;;;;;;3.23;3.00;;;;;;;;;;4957548;28;20219;-79
2023/11/28 07:28:45;;;;;;;3.30;2.93;;;;;;;;;;4970210;28;20229;-78
2023/11/28 07:31:16;;;;;;;3.23;3.03;;;;;;;;;;4975041;28;20215;-80
2023/11/28 07:33:42;;;;;;;4.10;2.93;;;;;;;;;;4960379;28;20715;-80
2023/11/28 07:36:16;;;;;;;3.83;3.40;;;;;;;;;;4930389;28;20211;-79
2023/11/28 07:38:45;;;;;;;3.20;3.00;;;;;;;;;;4928953;28;20233;-78
2023/11/28 07:41:15;;;;;;;3.80;3.50;;;;;;;;;;4942802;28;20726;-79
2023/11/28 07:43:42;;;;;;;3.57;3.27;;;;;;;;;;4943705;28;20607;-79
2023/11/28 07:46:07;;;;;;;3.47;3.27;;;;;;;;;;4962051;28;20239;-79
2023/11/28 07:48:33;;;;;;;3.57;3.27;;;;;;;;;;4937756;28;20226;-79
2023/11/28 07:50:58;;;;;;;3.47;3.20;;;;;;;;;;4971604;28;20236;-79
2023/11/28 07:53:24;;;;;;;3.40;3.20;;;;;;;;;;4952300;28;20237;-79
2023/11/28 07:55:49;;;;;;;3.53;3.23;;;;;;;;;;4952743;28;20265;-80
2023/11/28 07:58:15;;;;;;;3.63;3.43;;;;;;;;;;4978837;28;20241;-79
2023/11/28 08:00:40;;;;;;;3.77;3.37;;;;;;;;;;4958548;28;20249;-79
2023/11/28 08:03:09;;;;;;;3.77;3.40;;;;;;;;;;4979892;28;20227;-79
2023/11/28 08:05:36;;;;;;;3.33;3.10;;;;;;;;;;4947559;28;20221;-79
2023/11/28 08:08:01;;;;;;;4.07;3.70;;;;;;;;;;4951467;28;20229;-79
2023/11/28 08:10:27;;;;;;;3.83;3.53;;;;;;;;;;4955480;28;20226;-81
2023/11/28 08:12:55;;;;;;;4.23;3.60;;;;;;;;;;4950939;28;20222;-81
2023/11/28 08:15:20;;;;;;;3.90;3.60;;;;;;;;;;4966352;28;20223;-79
2023/11/28 08:17:48;;;;;;;3.80;3.50;;;;;;;;;;4967512;28;20277;-81
2023/11/28 08:20:17;;;;;;;3.87;3.57;;;;;;;;;;4944885;28;20253;-79
2023/11/28 08:22:44;;;;;;;3.53;3.33;;;;;;;;;;4956806;28;20233;-79
2023/11/28 08:25:10;;;;;;;3.90;3.60;;;;;;;;;;4941193;28;20219;-78
2023/11/28 08:27:36;;;;;;;3.93;3.60;;;;;;;;;;4963282;28;20230;-78
2023/11/28 08:30:02;;;;;;;4.13;3.83;;;;;;;;;;4952966;28;20234;-80
2023/11/28 08:32:28;;;;;;;3.00;2.80;;;;;;;;;;4951709;28;20211;-78
2023/11/28 08:34:56;;;;;;;3.77;3.47;;;;;;;;;;4974071;28;20221;-80
2023/11/28 08:37:23;;;;;;;3.47;3.17;;;;;;;;;;4957543;28;20231;-81
2023/11/28 08:39:49;;;;;;;3.13;2.93;;;;;;;;;;4940510;28;20219;-80
2023/11/28 08:42:16;;;;;;;3.47;3.17;;;;;;;;;;4938788;28;20249;-80
2023/11/28 08:44:42;;;;;;;4.27;3.40;;;;;;;;;;4973649;28;20771;-82
2023/11/28 08:47:10;;;;;;;3.20;3.00;;;;;;;;;;4969637;28;20241;-80
2023/11/28 08:49:35;;;;;;;3.37;3.10;;;;;;;;;;4954554;28;20577;-79
2023/11/28 08:52:01;;;;;;;4.03;3.57;;;;;;;;;;4938760;28;20230;-79
2023/11/28 08:54:26;;;;;;;3.47;3.17;;;;;;;;;;4953764;28;20230;-80
2023/11/28 08:56:52;;;;;;;4.87;3.53;;;;;;;;;;4946136;28;20234;-82
2023/11/28 08:59:20;;;;;;;3.50;3.20;;;;;;;;;;4937806;28;20759;-78
2023/11/28 09:01:47;;;;;;;4.07;2.87;;;;;;;;;;4965230;28;20238;-80
2023/11/28 09:04:13;;;;;;;3.47;3.10;;;;;;;;;;4962764;28;21249;-77
2023/11/28 09:06:40;;;;;;;3.33;3.03;;;;;;;;;;4939842;28;20235;-82
2023/11/28 09:09:05;;;;;;;3.13;2.90;;;;;;;;;;4953278;28;20808;-79
2023/11/28 09:11:31;;;;;;;3.23;2.90;;;;;;;;;;4948915;28;20322;-80
2023/11/28 09:13:56;;;;;;;3.70;3.40;;;;;;;;;;4950712;28;20227;-79
2023/11/28 09:16:22;;;;;;;5.60;3.20;;;;;;;;;;4951709;28;20225;-79
2023/11/28 09:18:47;;;;;;;3.70;3.40;;;;;;;;;;4947365;29;20227;-80
2023/11/28 09:21:13;;;;;;;3.57;3.13;;;;;;;;;;4966888;28;20241;-81
2023/11/28 09:23:40;;;;;;;4.83;2.97;;;;;;;;;;4962876;28;20234;-79
2023/11/28 09:26:06;;;;;;;3.23;3.03;;;;;;;;;;4933434;28;20230;-78
2023/11/28 09:28:34;;;;;;;3.17;2.90;;;;;;;;;;4964083;28;20229;-79
2023/11/28 09:31:00;;;;;;;3.50;3.20;;;;;;;;;;4964986;28;20222;-83
2023/11/28 09:33:25;;;;;;;4.03;3.00;;;;;;;;;;4936799;28;20226;-82
2023/11/28 09:35:53;;;;;;;3.17;2.87;;;;;;;;;;4933628;28;20243;-82
2023/11/28 09:38:19;;;;;;;5.00;2.90;;;;;;;;;;4938501;28;20233;-81
2023/11/28 09:40:45;;;;;;;2.97;2.77;;;;;;;;;;4952353;28;20606;-82
2023/11/28 09:43:10;;;;;;;2.90;2.70;;;;;;;;;;4956248;28;20226;-83
2023/11/28 09:45:42;;;;;;;2.90;2.70;;;;;;;;;;4938915;28;20233;-81
2023/11/28 09:48:10;;;;;;;4.00;3.20;;;;;;;;;;4937828;28;20960;-79
2023/11/28 09:50:38;;;;;;;3.50;3.17;;;;;;;;;;4935085;28;20703;-81
2023/11/28 09:53:03;;;;;;;3.63;3.27;;;;;;;;;;4974829;28;20230;-80
2023/11/28 09:55:29;;;;;;;3.00;2.80;;;;;;;;;;4946522;28;20238;-81
2023/11/28 09:57:57;;;;;;;3.90;2.57;;;;;;;;;;4938411;28;20214;-79
2023/11/28 10:00:32;;;;;;;3.50;2.57;;;;;;;;;;4938350;28;20245;-82
2023/11/28 10:02:58;;;;;;;2.67;2.47;;;;;;;;;;4949327;28;20249;-81
2023/11/28 10:05:23;;;;;;;2.90;2.50;;;;;;;;;;4945555;28;20242;-80
2023/11/28 10:07:53;;;;;;;5.57;2.80;;;;;;;;;;4956220;28;20840;-78
2023/11/28 10:10:19;;;;;;;3.27;3.07;;;;;;;;;;4985674;28;20249;-77
2023/11/28 10:12:49;;;;;;;4.23;3.83;;;;;;;;;;4938822;28;20214;-80
2023/11/28 10:15:17;;;;;;;2.57;2.37;;;;;;;;;;4931144;28;20262;-81
2023/11/28 10:17:43;;;;;;;2.80;2.60;;;;;;;;;;4954492;28;20218;-81
2023/11/28 10:20:10;;;;;;;2.60;2.40;;;;;;;;;;4948461;28;20218;-79
2023/11/28 10:22:39;;;;;;;2.67;2.47;;;;;;;;;;4962116;28;20478;-81
2023/11/28 10:25:10;;;;;;;2.57;2.37;;;;;;;;;;4953637;28;20295;-79
2023/11/28 10:27:47;;;;;;;2.57;2.30;;;;;;;;;;4983205;28;20222;-80
2023/11/28 10:30:16;;;;;;;2.77;2.33;;;;;;;;;;4949085;28;20294;-79
2023/11/28 10:32:41;;;;;;;3.23;2.90;;;;;;;;;;4959961;28;20221;-79
2023/11/28 10:35:07;;;;;;;2.60;2.40;;;;;;;;;;4971787;28;20232;-78
2023/11/28 10:37:36;;;;;;;1.97;1.87;;;;;;;;;;4961522;28;20229;-80
2023/11/28 10:40:14;;;;;;;2.40;2.17;;;;;;;;;;4936796;28;20215;-79
2023/11/28 10:42:45;;;;;;;2.23;2.10;;;;;;;;;;4953902;28;20230;-81
2023/11/28 10:45:12;;;;;;;2.40;2.30;;;;;;;;;;4973560;28;20249;-79
2023/11/28 10:47:41;;;;;;;2.40;2.20;;;;;;;;;;4938075;28;20230;-79
2023/11/28 10:50:08;;;;;;;2.43;2.17;;;;;;;;;;4939323;28;20226;-82
2023/11/28 10:52:36;;;;;;;2.53;2.33;;;;;;;;;;4957827;28;20669;-83
2023/11/28 10:55:07;;;;;;;2.70;2.50;;;;;;;;;;4938813;28;20588;-80
2023/11/28 10:57:33;;;;;;;2.87;2.20;;;;;;;;;;4965419;28;20909;-82
2023/11/28 11:00:06;;;;;;;2.43;2.00;;;;;;;;;;4955938;28;20221;-82
2023/11/28 11:02:31;;;;;;;2.77;2.30;;;;;;;;;;4939798;28;20664;-83
2023/11/28 11:04:59;;;;;;;2.33;2.13;;;;;;;;;;4934443;28;20244;-82
2023/11/28 11:07:25;;;;;;;2.37;2.20;;;;;;;;;;4933938;28;20215;-80
2023/11/28 11:09:52;;;;;;;2.90;2.53;;;;;;;;;;4938763;28;20277;-79
2023/11/28 11:12:18;;;;;;;2.20;2.00;;;;;;;;;;4967182;28;21112;-82
2023/11/28 11:14:52;;;;;;;3.13;1.90;;;;;;;;;;4947434;28;20238;-82
2023/11/28 11:17:32;;;;;;;3.20;2.90;;;;;;;;;;4970492;28;20702;-82
2023/11/28 11:19:58;;;;;;;2.33;2.03;;;;;;;;;;4954517;28;20259;-83
2023/11/28 11:22:30;;;;;;;2.10;2.00;;;;;;;;;;4947508;28;20235;-84
2023/11/28 11:24:55;;;;;;;2.80;2.30;;;;;;;;;;4960942;28;20287;-81
2023/11/28 11:27:21;;;;;;;3.93;2.37;;;;;;;;;;4933670;28;20214;-81
2023/11/28 11:29:49;;;;;;;3.10;2.73;;;;;;;;;;4973999;28;20613;-80
2023/11/28 11:32:18;;;;;;;4.63;2.20;;;;;;;;;;4962431;28;20584;-81
2023/11/28 11:34:45;;;;;;;2.00;1.70;;;;;;;;;;4975452;28;20316;-79
2023/11/28 11:37:43;;;;;;;2.10;1.90;;;;;;;;;;4952748;28;20702;-79
2023/11/28 11:40:08;;;;;;;2.40;2.10;;;;;;;;;;4925632;28;20244;-81
2023/11/28 11:42:35;;;;;;;2.10;1.90;;;;;;;;;;4949942;28;20230;-79
2023/11/28 11:45:02;;;;;;;3.67;2.10;;;;;;;;;;4956476;28;20215;-81
2023/11/28 11:47:29;;;;;;;2.00;1.80;;;;;;;;;;4956612;28;20277;-77
2023/11/28 11:49:55;;;;;;;2.30;1.93;;;;;;;;;;4939689;28;20229;-80
2023/11/28 11:52:27;;;;;;;3.53;2.00;;;;;;;;;;4955227;28;20230;-80
2023/11/28 11:55:04;;;;;;;2.70;1.90;;;;;;;;;;4956971;28;20227;-80
2023/11/28 11:57:30;;;;;;;2.50;2.13;;;;;;;;;;4963650;28;20228;-78
2023/11/28 11:59:56;;;;;;;2.43;2.23;;;;;;;;;;4966354;28;20790;-80
2023/11/28 12:02:24;;;;;;;2.00;1.90;;;;;;;;;;4972011;28;20241;-81
2023/11/28 12:04:50;;;;;;;2.33;2.13;;;;;;;;;;4961260;28;20237;-78
2023/11/28 12:07:18;;;;;;;2.27;2.07;;;;;;;;;;4948936;28;20695;-78
2023/11/28 12:09:46;;;;;;;2.10;1.90;;;;;;;;;;4961602;28;20237;-79
2023/11/28 12:12:12;;;;;;;2.20;2.00;;;;;;;;;;4956679;28;20218;-78
2023/11/28 12:14:38;;;;;;;2.90;2.17;;;;;;;;;;4952497;28;20230;-79
2023/11/28 12:17:04;;;;;;;2.30;2.10;;;;;;;;;;4985907;28;20221;-78
2023/11/28 12:19:30;;;;;;;2.30;2.10;;;;;;;;;;4968891;28;20317;-77
2023/11/28 12:22:03;;;;;;;2.47;2.27;;;;;;;;;;4956062;28;20230;-78
2023/11/28 12:24:31;;;;;;;1.90;1.80;;;;;;;;;;4975216;28;20223;-78
2023/11/28 12:26:59;;;;;;;2.10;2.00;;;;;;;;;;4968706;28;20606;-80
2023/11/28 12:29:28;;;;;;;3.60;2.37;;;;;;;;;;4923708;28;20230;-80
2023/11/28 12:31:56;;;;;;;3.47;3.17;;;;;;;;;;4943312;28;20573;-81
2023/11/28 12:34:25;;;;;;;3.10;2.80;;;;;;;;;;4952670;28;20231;-80
2023/11/28 12:36:54;;;;;;;4.37;3.37;;;;;;;;;;4957032;28;20219;-81
2023/11/28 12:39:25;;;;;;;3.70;3.30;;;;;;;;;;4954854;28;20273;-81
2023/11/28 12:41:50;;;;;;;3.90;2.57;;;;;;;;;;4972956;28;20265;-81
2023/11/28 12:44:21;;;;;;;3.97;3.10;;;;;;;;;;4950179;28;20234;-81
2023/11/28 12:46:49;;;;;;;3.00;2.70;;;;;;;;;;4951001;28;20227;-80
2023/11/28 12:49:15;;;;;;;2.83;2.37;;;;;;;;;;4951850;28;20237;-80
2023/11/28 12:51:42;;;;;;;3.13;2.83;;;;;;;;;;4977091;28;20274;-80
2023/11/28 12:54:13;;;;;;;2.20;2.10;;;;;;;;;;4963044;28;20242;-79
2023/11/28 12:56:52;;;;;;;2.43;2.23;;;;;;;;;;4935954;28;20234;-80
2023/11/28 12:59:20;;;;;;;4.33;2.93;;;;;;;;;;4966732;28;20220;-80
2023/11/28 13:01:48;;;;;;;2.43;2.30;;;;;;;;;;4968139;28;20323;-80
2023/11/28 13:04:14;;;;;;;3.27;2.97;;;;;;;;;;4954353;28;20246;-80
2023/11/28 13:06:42;;;;;;;2.60;2.40;;;;;;;;;;4966973;28;20594;-80
2023/11/28 13:09:08;;;;;;;2.77;2.57;;;;;;;;;;4951625;28;20227;-80
2023/11/28 13:11:33;;;;;;;2.40;2.20;;;;;;;;;;4940868;28;20294;-80
2023/11/28 13:14:02;;;;;;;2.37;2.17;;;;;;;;;;4960187;28;20230;-80
2023/11/28 13:16:30;;;;;;;4.63;2.73;;;;;;;;;;4961094;28;20230;-79
2023/11/28 13:18:56;;;;;;;3.13;2.83;;;;;;;;;;4967816;28;20691;-79
2023/11/28 13:21:24;;;;;;;3.23;2.93;;;;;;;;;;4949740;28;20223;-79
2023/11/28 13:23:51;;;;;;;3.40;3.10;;;;;;;;;;4951500;28;20241;-80
2023/11/28 13:26:18;;;;;;;3.57;2.27;;;;;;;;;;4947394;28;20218;-80
2023/11/28 13:28:49;;;;;;;3.43;2.43;;;;;;;;;;4965877;28;20301;-79
2023/11/28 13:31:15;;;;;;;2.70;2.47;;;;;;;;;;4936143;28;20217;-80
2023/11/28 13:33:45;;;;;;;3.00;2.80;;;;;;;;;;4970614;28;20348;-82
2023/11/28 13:36:14;;;;;;;3.17;2.87;;;;;;;;;;4952004;28;20736;-80
2023/11/28 13:38:45;;;;;;;3.03;2.80;;;;;;;;;;4964835;28;20234;-78
2023/11/28 13:41:11;;;;;;;4.70;3.87;;;;;;;;;;4944653;28;20334;-78
2023/11/28 13:43:39;;;;;;;2.47;2.27;;;;;;;;;;4961792;28;20235;-78
2023/11/28 13:46:05;;;;;;;2.83;2.47;;;;;;;;;;4969269;28;20228;-78
2023/11/28 13:48:32;;;;;;;2.87;2.20;;;;;;;;;;4961475;28;20211;-79
2023/11/28 13:50:58;;;;;;;3.10;2.70;;;;;;;;;;4949824;28;20218;-79
2023/11/28 13:53:25;;;;;;;3.17;2.97;;;;;;;;;;4961048;28;20310;-80
2023/11/28 13:55:52;;;;;;;3.13;2.70;;;;;;;;;;4938712;28;20238;-79
2023/11/28 13:58:18;;;;;;;2.80;2.60;;;;;;;;;;4978059;28;20226;-80
2023/11/28 14:00:44;;;;;;;3.27;2.97;;;;;;;;;;4966443;28;20230;-80
2023/11/28 14:03:17;;;;;;;3.00;2.80;;;;;;;;;;4936697;28;20232;-80
2023/11/28 14:05:44;;;;;;;4.63;3.40;;;;;;;;;;4982953;28;20301;-79
2023/11/28 14:08:12;;;;;;;4.47;3.47;;;;;;;;;;4972724;28;20646;-80
2023/11/28 14:10:38;;;;;;;3.83;3.43;;;;;;;;;;4934526;28;20223;-81
2023/11/28 14:13:06;;;;;;;4.13;3.80;;;;;;;;;;4968321;28;20273;-80
2023/11/28 14:15:34;;;;;;;4.10;3.70;;;;;;;;;;4964700;28;21063;-80
2023/11/28 14:18:03;;;;;;;4.70;4.20;;;;;;;;;;4937182;28;20245;-80
2023/11/28 14:20:29;;;;;;;4.23;3.80;;;;;;;;;;4944478;28;20225;-80
2023/11/28 14:22:57;;;;;;;4.47;4.17;;;;;;;;;;4956290;28;20280;-79
2023/11/28 14:25:22;;;;;;;4.20;3.80;;;;;;;;;;4968613;28;20230;-79
2023/11/28 14:27:49;;;;;;;5.77;4.17;;;;;;;;;;4969098;28;20273;-78
2023/11/28 14:30:16;;;;;;;4.60;4.20;;;;;;;;;;4975526;28;20700;-78
2023/11/28 14:32:44;;;;;;;5.07;4.50;;;;;;;;;;4977450;28;20226;-78
2023/11/28 14:35:14;;;;;;;5.83;5.07;;;;;;;;;;4965108;28;20229;-78
2023/11/28 14:37:42;;;;;;;6.27;4.27;;;;;;;;;;4977328;28;20249;-79
2023/11/28 14:40:10;;;;;;;4.57;4.07;;;;;;;;;;4946079;28;20229;-78
2023/11/28 14:42:40;;;;;;;4.33;3.93;;;;;;;;;;4944845;28;20292;-79
2023/11/28 14:45:09;;;;;;;4.53;4.13;;;;;;;;;;4972990;28;20224;-78
2023/11/28 14:47:36;;;;;;;4.03;3.73;;;;;;;;;;4978059;28;20704;-78